createdAt,value
2023-04-26T00:00:06.578Z,42.45
2023-04-26T00:01:06.657Z,40.06
2023-04-26T00:02:06.686Z,44.28
2023-04-26T00:03:06.883Z,39.14
2023-04-26T00:04:07.023Z,40.25
2023-04-26T00:05:07.346Z,40.40
2023-04-26T00:06:06.972Z,37.73
2023-04-26T00:07:07.031Z,39.53
2023-04-26T00:08:07.086Z,37.25
2023-04-26T00:09:07.164Z,41.63
2023-04-26T00:10:07.280Z,39.09
2023-04-26T00:11:07.323Z,37.86
2023-04-26T00:12:07.356Z,38.44
2023-04-26T00:13:07.424Z,37.56
2023-04-26T00:14:07.536Z,40.99
2023-04-26T00:15:07.609Z,35.95
2023-04-26T00:16:07.745Z,37.47
2023-04-26T00:17:07.651Z,37.67
2023-04-26T00:18:07.748Z,37.82
2023-04-26T00:19:07.662Z,38.80
2023-04-26T00:20:07.690Z,39.59
2023-04-26T00:21:07.692Z,40.09
2023-04-26T00:22:07.664Z,42.95
2023-04-26T00:23:07.667Z,38.03
2023-04-26T00:24:07.655Z,42.64
2023-04-26T00:25:07.661Z,41.90
2023-04-26T00:26:07.717Z,43.96
2023-04-26T00:28:26.640Z,25.00
2023-04-26T00:29:26.610Z,25.00
2023-04-26T00:30:26.609Z,25.00
2023-04-26T00:31:26.662Z,25.00
2023-04-26T00:32:26.641Z,25.00
2023-04-26T00:33:26.612Z,26.23
2023-04-26T00:34:26.609Z,26.68
2023-04-26T00:35:26.595Z,27.44
2023-04-26T00:36:26.567Z,27.43
2023-04-26T00:37:26.573Z,28.25
2023-04-26T00:38:26.589Z,24.96
2023-04-26T00:39:26.586Z,28.89
2023-04-26T00:40:26.570Z,27.38
2023-04-26T00:41:26.568Z,26.40
2023-04-26T00:42:26.555Z,33.04
2023-04-26T00:43:26.578Z,25.31
2023-04-26T00:44:26.548Z,28.01
2023-04-26T00:45:26.631Z,31.59
2023-04-26T00:46:26.780Z,30.90
2023-04-26T00:47:26.612Z,27.50
2023-04-26T00:48:26.546Z,29.47
2023-04-26T00:49:26.559Z,29.31
2023-04-26T00:50:26.555Z,28.62
2023-04-26T00:51:26.544Z,28.42
2023-04-26T00:52:26.543Z,29.89
2023-04-26T00:53:26.537Z,30.68
2023-04-26T00:54:26.544Z,27.60
2023-04-26T00:55:26.577Z,29.15
2023-04-26T00:56:26.531Z,27.19
2023-04-26T00:57:26.539Z,29.17
2023-04-26T00:58:26.524Z,27.85
2023-04-26T00:59:26.523Z,28.37
2023-04-26T01:00:26.511Z,28.44
2023-04-26T01:01:26.553Z,27.06
2023-04-26T01:02:26.641Z,31.82
2023-04-26T01:03:26.619Z,28.77
2023-04-26T01:04:26.667Z,32.29
2023-04-26T01:05:26.477Z,32.68
2023-04-26T01:06:26.472Z,29.20
2023-04-26T01:07:26.462Z,30.16
2023-04-26T01:08:26.510Z,27.55
2023-04-26T01:09:26.549Z,29.82
2023-04-26T01:10:26.615Z,27.66
2023-04-26T01:11:26.653Z,30.37
2023-04-26T01:12:26.712Z,32.74
2023-04-26T01:13:26.771Z,27.75
2023-04-26T01:14:26.841Z,30.65
2023-04-26T01:15:26.914Z,30.02
2023-04-26T01:16:27.038Z,32.47
2023-04-26T01:17:27.075Z,33.94
2023-04-26T01:18:27.054Z,29.48
2023-04-26T01:19:27.112Z,25.33
2023-04-26T01:20:27.156Z,30.28
2023-04-26T01:21:27.276Z,31.24
2023-04-26T01:22:27.266Z,32.71
2023-04-26T01:23:27.298Z,32.87
2023-04-26T01:24:27.331Z,29.42
2023-04-26T01:25:27.352Z,30.40
2023-04-26T01:26:27.395Z,28.65
2023-04-26T01:27:27.416Z,29.65
2023-04-26T01:28:27.456Z,33.45
2023-04-26T01:29:27.466Z,32.89
2023-04-26T01:30:27.458Z,33.44
2023-04-26T01:31:27.525Z,32.94
2023-04-26T01:32:27.500Z,30.62
2023-04-26T01:33:27.456Z,27.53
2023-04-26T01:34:27.470Z,33.92
2023-04-26T01:35:27.450Z,29.15
2023-04-26T01:36:27.484Z,32.44
2023-04-26T01:37:27.436Z,33.19
2023-04-26T01:38:27.447Z,30.97
2023-04-26T01:39:27.474Z,32.68
2023-04-26T01:40:27.495Z,28.64
2023-04-26T01:41:27.525Z,30.30
2023-04-26T01:42:27.573Z,30.14
2023-04-26T01:43:27.612Z,30.82
2023-04-26T01:44:27.692Z,29.15
2023-04-26T01:45:27.730Z,31.07
2023-04-26T01:46:27.872Z,29.27
2023-04-26T01:47:27.913Z,32.53
2023-04-26T01:48:27.865Z,29.82
2023-04-26T01:49:27.933Z,31.03
2023-04-26T01:50:27.975Z,27.51
2023-04-26T01:51:28.039Z,33.75
2023-04-26T01:52:28.079Z,32.66
2023-04-26T01:53:28.141Z,30.57
2023-04-26T01:54:28.187Z,26.80
2023-04-26T01:55:28.213Z,30.73
2023-04-26T01:56:28.225Z,29.25
2023-04-26T01:57:28.254Z,32.35
2023-04-26T01:58:28.278Z,28.68
2023-04-26T01:59:28.288Z,29.71
2023-04-26T02:00:28.290Z,31.21
2023-04-26T02:01:28.303Z,27.57
2023-04-26T02:02:28.289Z,28.76
2023-04-26T02:03:28.284Z,29.11
2023-04-26T02:04:28.301Z,30.98
2023-04-26T02:05:28.350Z,29.31
2023-04-26T02:06:28.271Z,30.33
2023-04-26T02:07:28.274Z,29.70
2023-04-26T02:08:28.299Z,31.96
2023-04-26T02:09:28.304Z,28.35
2023-04-26T02:10:28.308Z,30.37
2023-04-26T02:11:28.351Z,30.78
2023-04-26T02:12:28.354Z,30.00
2023-04-26T02:13:28.320Z,29.95
2023-04-26T02:14:28.326Z,28.85
2023-04-26T02:15:28.372Z,32.66
2023-04-26T02:16:28.445Z,29.57
2023-04-26T02:17:28.418Z,28.57
2023-04-26T02:18:28.397Z,28.87
2023-04-26T02:19:28.419Z,31.78
2023-04-26T02:20:28.432Z,30.07
2023-04-26T02:21:28.491Z,32.65
2023-04-26T02:22:28.550Z,28.30
2023-04-26T02:23:28.570Z,33.79
2023-04-26T02:24:28.608Z,32.95
2023-04-26T02:25:28.681Z,30.19
2023-04-26T02:26:28.693Z,31.28
2023-04-26T02:27:28.645Z,30.78
2023-04-26T02:28:28.696Z,31.76
2023-04-26T02:29:43.162Z,33.54
2023-04-26T02:30:29.711Z,33.61
2023-04-26T02:31:28.740Z,31.56
2023-04-26T02:32:28.713Z,30.45
2023-04-26T02:33:28.806Z,34.05
2023-04-26T02:34:28.713Z,31.21
2023-04-26T02:35:28.721Z,32.50
2023-04-26T02:36:28.723Z,31.56
2023-04-26T02:37:28.762Z,33.47
2023-04-26T02:38:28.732Z,28.80
2023-04-26T02:39:28.738Z,28.08
2023-04-26T02:40:28.818Z,32.42
2023-04-26T02:41:28.969Z,28.67
2023-04-26T02:42:28.964Z,29.22
2023-04-26T02:43:28.920Z,29.77
2023-04-26T02:44:28.956Z,30.87
2023-04-26T02:45:28.993Z,31.25
2023-04-26T02:46:29.095Z,32.06
2023-04-26T02:47:29.091Z,31.88
2023-04-26T02:48:29.147Z,31.20
2023-04-26T02:49:29.157Z,31.39
2023-04-26T02:50:29.128Z,31.86
2023-04-26T02:51:29.267Z,31.47
2023-04-26T02:52:29.105Z,31.37
2023-04-26T02:53:29.113Z,32.07
2023-04-26T02:54:29.161Z,33.24
2023-04-26T02:55:29.080Z,32.21
2023-04-26T02:56:29.108Z,33.24
2023-04-26T02:57:29.085Z,30.66
2023-04-26T02:58:29.084Z,32.21
2023-04-26T02:59:29.091Z,31.12
2023-04-26T03:00:29.085Z,29.97
2023-04-26T03:01:29.177Z,32.86
2023-04-26T03:02:29.228Z,27.73
2023-04-26T03:03:29.255Z,27.90
2023-04-26T03:04:29.190Z,27.84
2023-04-26T03:05:29.168Z,27.99
2023-04-26T03:06:29.184Z,28.53
2023-04-26T03:07:29.177Z,29.18
2023-04-26T03:08:29.168Z,29.18
2023-04-26T03:09:29.173Z,32.75
2023-04-26T03:10:29.165Z,31.85
2023-04-26T03:11:29.174Z,31.22
2023-04-26T03:12:29.150Z,32.14
2023-04-26T03:13:29.202Z,32.68
2023-04-26T03:14:29.147Z,32.57
2023-04-26T03:15:29.136Z,29.57
2023-04-26T03:16:29.164Z,33.23
2023-04-26T03:17:29.163Z,33.33
2023-04-26T03:18:29.128Z,33.50
2023-04-26T03:19:29.144Z,33.41
2023-04-26T03:20:29.100Z,33.49
2023-04-26T03:21:29.111Z,34.81
2023-04-26T03:22:29.111Z,32.18
2023-04-26T03:23:29.110Z,34.21
2023-04-26T03:24:29.097Z,33.38
2023-04-26T03:25:29.094Z,33.80
2023-04-26T03:26:29.081Z,34.15
2023-04-26T03:27:29.077Z,34.70
2023-04-26T03:28:29.103Z,33.40
2023-04-26T03:29:29.073Z,34.47
2023-04-26T03:30:29.077Z,35.13
2023-04-26T03:31:29.106Z,35.63
2023-04-26T03:32:29.094Z,34.38
2023-04-26T03:33:29.058Z,35.12
2023-04-26T03:34:29.054Z,33.09
2023-04-26T03:35:29.038Z,36.64
2023-04-26T03:36:29.034Z,30.34
2023-04-26T03:37:29.045Z,33.76
2023-04-26T03:38:29.051Z,32.68
2023-04-26T03:39:29.046Z,33.10
2023-04-26T03:40:29.044Z,31.35
2023-04-26T03:41:29.046Z,32.28
2023-04-26T03:42:29.050Z,33.80
2023-04-26T03:43:29.046Z,32.17
2023-04-26T03:44:31.040Z,31.81
2023-04-26T03:45:29.046Z,32.88
2023-04-26T03:46:29.312Z,31.91
2023-04-26T03:47:29.066Z,33.19
2023-04-26T03:48:29.023Z,32.73
2023-04-26T03:49:29.050Z,31.87
2023-04-26T03:50:29.049Z,33.51
2023-04-26T03:51:29.062Z,33.22
2023-04-26T03:52:29.055Z,34.44
2023-04-26T03:53:29.092Z,31.28
2023-04-26T03:54:29.103Z,32.56
2023-04-26T03:55:29.104Z,31.93
2023-04-26T03:56:29.114Z,31.54
2023-04-26T03:57:29.146Z,32.35
2023-04-26T03:58:29.162Z,31.96
2023-04-26T03:59:29.188Z,29.68
2023-04-26T04:00:29.200Z,33.49
2023-04-26T04:01:29.194Z,33.59
2023-04-26T04:02:29.361Z,31.69
2023-04-26T04:03:29.414Z,34.02
2023-04-26T04:04:29.380Z,31.76
2023-04-26T04:05:29.312Z,29.45
2023-04-26T04:06:29.323Z,32.73
2023-04-26T04:07:29.340Z,33.08
2023-04-26T04:08:29.455Z,32.02
2023-04-26T04:09:29.315Z,32.35
2023-04-26T04:10:29.310Z,32.34
2023-04-26T04:11:29.317Z,31.83
2023-04-26T04:12:29.319Z,31.79
2023-04-26T04:13:29.352Z,29.97
2023-04-26T04:14:29.350Z,31.94
2023-04-26T04:15:29.403Z,33.66
2023-04-26T04:16:29.496Z,33.74
2023-04-26T04:17:29.395Z,36.20
2023-04-26T04:18:29.398Z,30.54
2023-04-26T04:19:29.366Z,34.91
2023-04-26T04:20:29.366Z,32.88
2023-04-26T04:21:29.359Z,30.27
2023-04-26T04:22:29.368Z,32.55
2023-04-26T04:23:29.367Z,31.92
2023-04-26T04:24:29.405Z,34.42
2023-04-26T04:25:29.398Z,30.65
2023-04-26T04:26:29.375Z,30.12
2023-04-26T04:27:29.372Z,32.96
2023-04-26T04:28:29.382Z,33.61
2023-04-26T04:29:29.458Z,33.24
2023-04-26T04:30:29.367Z,31.50
2023-04-26T04:31:29.390Z,34.18
2023-04-26T04:32:29.369Z,31.63
2023-04-26T04:33:29.355Z,33.81
2023-04-26T04:34:29.357Z,33.54
2023-04-26T04:35:29.373Z,31.56
2023-04-26T04:36:29.384Z,32.14
2023-04-26T04:37:29.434Z,28.81
2023-04-26T04:38:29.492Z,35.55
2023-04-26T04:39:29.550Z,35.93
2023-04-26T04:40:29.599Z,31.97
2023-04-26T04:41:29.653Z,34.11
2023-04-26T04:42:29.702Z,34.09
2023-04-26T04:43:29.741Z,33.08
2023-04-26T04:44:29.782Z,33.25
2023-04-26T04:45:29.816Z,33.36
2023-04-26T04:46:29.904Z,34.48
2023-04-26T04:47:29.897Z,30.53
2023-04-26T04:48:29.864Z,34.00
2023-04-26T04:49:29.856Z,31.57
2023-04-26T04:50:29.870Z,35.58
2023-04-26T04:51:29.897Z,33.11
2023-04-26T04:52:29.898Z,32.74
2023-04-26T04:53:29.897Z,32.10
2023-04-26T04:54:29.893Z,33.65
2023-04-26T04:55:29.887Z,35.63
2023-04-26T04:56:29.881Z,36.45
2023-04-26T04:57:29.904Z,29.68
2023-04-26T04:58:29.902Z,34.47
2023-04-26T04:59:29.907Z,31.02
2023-04-26T05:00:29.907Z,33.30
2023-04-26T05:01:29.955Z,33.34
2023-04-26T05:02:29.982Z,34.02
2023-04-26T05:03:29.979Z,34.36
2023-04-26T05:04:30.046Z,35.08
2023-04-26T05:05:29.885Z,37.26
2023-04-26T05:06:29.860Z,35.39
2023-04-26T05:07:29.873Z,33.19
2023-04-26T05:08:29.857Z,34.76
2023-04-26T05:09:29.865Z,34.04
2023-04-26T05:10:29.863Z,33.85
2023-04-26T05:11:29.866Z,31.43
2023-04-26T05:12:29.858Z,31.91
2023-04-26T05:13:29.846Z,35.07
2023-04-26T05:14:29.849Z,31.53
2023-04-26T05:15:29.868Z,35.71
2023-04-26T05:16:29.893Z,33.46
2023-04-26T05:17:29.840Z,33.96
2023-04-26T05:18:29.836Z,34.29
2023-04-26T05:19:29.853Z,34.32
2023-04-26T05:20:29.843Z,34.73
2023-04-26T05:21:29.998Z,34.23
2023-04-26T05:22:29.825Z,33.43
2023-04-26T05:23:29.811Z,30.63
2023-04-26T05:24:29.811Z,33.75
2023-04-26T05:25:29.825Z,31.97
2023-04-26T05:26:29.790Z,34.51
2023-04-26T05:27:29.793Z,35.28
2023-04-26T05:28:29.785Z,33.94
2023-04-26T05:29:29.781Z,35.38
2023-04-26T05:30:29.825Z,36.93
2023-04-26T05:31:29.807Z,35.04
2023-04-26T05:32:29.779Z,33.83
2023-04-26T05:33:29.785Z,34.01
2023-04-26T05:34:29.830Z,36.35
2023-04-26T05:35:29.846Z,39.02
2023-04-26T05:36:30.103Z,42.91
2023-04-26T05:37:29.777Z,48.25
2023-04-26T05:38:29.774Z,54.25
2023-04-26T05:39:29.773Z,60.46
2023-04-26T05:40:29.782Z,73.59
2023-04-26T05:41:29.767Z,86.31
2023-04-26T05:42:29.766Z,104.97
2023-04-26T05:43:29.759Z,118.29
2023-04-26T05:44:29.821Z,129.90
2023-04-26T05:45:30.070Z,145.12
2023-04-26T05:46:30.093Z,156.44
2023-04-26T05:47:30.179Z,171.50
2023-04-26T05:48:30.073Z,186.81
2023-04-26T05:49:30.083Z,199.87
2023-04-26T05:50:30.139Z,213.93
2023-04-26T05:51:30.290Z,223.86
2023-04-26T05:52:30.212Z,234.57
2023-04-26T05:53:30.248Z,248.00
2023-04-26T05:54:30.270Z,250.50
2023-04-26T05:55:30.313Z,250.89
2023-04-26T05:56:30.281Z,253.56
2023-04-26T05:57:30.309Z,262.28
2023-04-26T05:58:30.282Z,252.01
2023-04-26T05:59:30.279Z,258.16
2023-04-26T06:00:30.215Z,270.18
2023-04-26T06:01:30.188Z,291.76
2023-04-26T06:02:30.382Z,321.75
2023-04-26T06:03:30.409Z,301.89
2023-04-26T06:04:30.445Z,280.48
2023-04-26T06:05:30.359Z,257.14
2023-04-26T06:06:30.153Z,250.00
2023-04-26T06:07:30.123Z,249.54
2023-04-26T06:08:30.144Z,249.98
2023-04-26T06:09:30.169Z,250.00
2023-04-26T06:10:30.099Z,249.89
2023-04-26T06:11:30.085Z,250.00
2023-04-26T06:12:30.096Z,249.63
2023-04-26T06:13:30.120Z,250.00
2023-04-26T06:14:30.917Z,250.00
2023-04-26T06:15:30.094Z,250.24
2023-04-26T06:16:30.117Z,250.46
2023-04-26T06:17:30.106Z,252.59
2023-04-26T06:18:30.062Z,250.78
2023-04-26T06:19:30.132Z,253.29
2023-04-26T06:20:30.037Z,259.84
2023-04-26T06:21:30.032Z,251.10
2023-04-26T06:22:30.017Z,255.09
2023-04-26T06:23:30.001Z,263.39
2023-04-26T06:24:29.978Z,276.60
2023-04-26T06:25:29.974Z,297.42
2023-04-26T06:26:30.006Z,282.75
2023-04-26T06:27:29.981Z,268.99
2023-04-26T06:28:29.964Z,257.02
2023-04-26T06:29:29.939Z,250.00
2023-04-26T06:30:29.959Z,249.79
2023-04-26T06:31:29.973Z,249.89
2023-04-26T06:32:29.950Z,249.87
2023-04-26T06:33:29.918Z,248.89
2023-04-26T06:34:29.865Z,250.00
2023-04-26T06:35:29.877Z,249.19
2023-04-26T06:36:29.832Z,249.21
2023-04-26T06:37:29.799Z,249.23
2023-04-26T06:38:29.781Z,248.64
2023-04-26T06:39:29.768Z,250.00
2023-04-26T06:40:29.753Z,249.28
2023-04-26T06:41:29.722Z,250.00
2023-04-26T06:42:29.702Z,250.00
2023-04-26T06:43:29.727Z,237.19
2023-04-26T06:44:29.673Z,236.56
2023-04-26T06:45:29.682Z,241.04
2023-04-26T06:46:29.676Z,238.88
2023-04-26T06:47:29.685Z,237.79
2023-04-26T06:48:29.624Z,237.92
2023-04-26T06:49:29.624Z,238.40
2023-04-26T06:50:29.610Z,240.26
2023-04-26T06:51:29.656Z,244.00
2023-04-26T06:52:29.589Z,255.84
2023-04-26T06:53:29.555Z,255.03
2023-04-26T06:54:29.563Z,249.42
2023-04-26T06:55:29.522Z,248.64
2023-04-26T06:56:29.508Z,248.97
2023-04-26T06:57:29.496Z,249.66
2023-04-26T06:58:29.472Z,248.48
2023-04-26T06:59:29.459Z,247.73
2023-04-26T07:00:29.582Z,247.80
2023-04-26T07:01:29.574Z,247.75
2023-04-26T07:02:29.736Z,247.53
2023-04-26T07:03:29.653Z,245.68
2023-04-26T07:04:29.582Z,242.91
2023-04-26T07:05:29.505Z,244.55
2023-04-26T07:06:29.422Z,245.09
2023-04-26T07:07:29.347Z,246.11
2023-04-26T07:08:29.362Z,245.70
2023-04-26T07:09:29.495Z,246.96
2023-04-26T07:10:29.457Z,247.12
2023-04-26T07:11:29.462Z,246.49
2023-04-26T07:12:29.495Z,246.88
2023-04-26T07:13:29.599Z,247.00
2023-04-26T07:14:29.568Z,246.85
2023-04-26T07:15:29.641Z,247.85
2023-04-26T07:16:29.623Z,248.28
2023-04-26T07:17:29.837Z,251.13
2023-04-26T07:18:29.559Z,256.30
2023-04-26T07:19:29.515Z,263.96
2023-04-26T07:20:29.527Z,265.15
2023-04-26T07:21:29.462Z,254.07
2023-04-26T07:22:29.456Z,247.66
2023-04-26T07:23:29.432Z,248.32
2023-04-26T07:24:29.451Z,246.14
2023-04-26T07:25:29.475Z,247.22
2023-04-26T07:26:29.549Z,246.95
2023-04-26T07:27:29.503Z,246.58
2023-04-26T07:28:29.437Z,246.38
2023-04-26T07:29:29.447Z,245.74
2023-04-26T07:30:29.493Z,246.29
2023-04-26T07:31:29.358Z,245.38
2023-04-26T07:32:29.402Z,246.15
2023-04-26T07:33:29.437Z,247.26
2023-04-26T07:34:29.279Z,248.55
2023-04-26T07:35:29.297Z,248.74
2023-04-26T07:36:29.335Z,249.81
2023-04-26T07:37:29.353Z,249.30
2023-04-26T07:38:29.452Z,249.27
2023-04-26T07:39:29.439Z,248.91
2023-04-26T07:40:29.456Z,248.08
2023-04-26T07:41:29.442Z,248.08
2023-04-26T07:42:29.431Z,245.62
2023-04-26T07:43:29.400Z,241.73
2023-04-26T07:44:29.360Z,236.52
2023-04-26T07:45:29.577Z,235.17
2023-04-26T07:46:29.315Z,235.24
2023-04-26T07:47:29.315Z,234.72
2023-04-26T07:48:29.266Z,234.93
2023-04-26T07:49:29.253Z,233.51
2023-04-26T07:50:29.286Z,233.30
2023-04-26T07:51:29.324Z,232.96
2023-04-26T07:52:29.305Z,232.99
2023-04-26T07:53:29.283Z,232.41
2023-04-26T07:54:29.240Z,232.96
2023-04-26T07:55:29.218Z,232.06
2023-04-26T07:56:29.177Z,231.75
2023-04-26T07:57:29.187Z,232.85
2023-04-26T07:58:29.125Z,235.09
2023-04-26T07:59:29.103Z,244.77
2023-04-26T08:00:29.093Z,237.23
2023-04-26T08:01:29.228Z,236.24
2023-04-26T08:02:43.391Z,237.85
2023-04-26T08:03:30.205Z,237.93
2023-04-26T08:04:30.260Z,238.00
2023-04-26T08:05:29.512Z,238.59
2023-04-26T08:06:28.956Z,239.06
2023-04-26T08:07:28.971Z,240.53
2023-04-26T08:08:28.971Z,241.56
2023-04-26T08:09:28.909Z,243.23
2023-04-26T08:10:29.884Z,241.92
2023-04-26T08:11:28.877Z,243.22
2023-04-26T08:12:28.877Z,243.51
2023-04-26T08:13:29.682Z,242.31
2023-04-26T08:14:29.489Z,241.67
2023-04-26T08:15:28.975Z,242.67
2023-04-26T08:16:28.902Z,241.97
2023-04-26T08:17:29.199Z,242.13
2023-04-26T08:18:29.165Z,242.19
2023-04-26T08:19:28.849Z,242.90
2023-04-26T08:20:28.818Z,243.93
2023-04-26T08:21:28.644Z,245.55
2023-04-26T08:22:28.616Z,244.68
2023-04-26T08:23:28.606Z,246.35
2023-04-26T08:24:28.622Z,246.34
2023-04-26T08:25:28.590Z,247.28
2023-04-26T08:26:28.540Z,247.79
2023-04-26T08:27:28.497Z,248.11
2023-04-26T08:28:28.480Z,247.35
2023-04-26T08:29:28.539Z,248.92
2023-04-26T08:30:28.458Z,248.97
2023-04-26T08:31:28.423Z,236.91
2023-04-26T08:32:28.444Z,195.13
2023-04-26T08:33:28.382Z,165.78
2023-04-26T08:34:28.349Z,147.99
2023-04-26T08:35:28.398Z,140.52
2023-04-26T08:36:28.326Z,135.45
2023-04-26T08:37:29.391Z,131.59
2023-04-26T08:38:28.287Z,128.23
2023-04-26T08:39:28.267Z,116.33
2023-04-26T08:40:28.270Z,109.66
2023-04-26T08:41:28.222Z,101.50
2023-04-26T08:42:28.267Z,96.56
2023-04-26T08:43:28.246Z,84.36
2023-04-26T08:44:28.314Z,78.10
2023-04-26T08:45:28.345Z,71.43
2023-04-26T08:46:28.409Z,62.37
2023-04-26T08:47:28.542Z,53.69
2023-04-26T08:48:28.531Z,35.39
2023-04-26T08:49:28.532Z,29.90
2023-04-26T08:50:28.584Z,24.56
2023-04-26T08:51:28.673Z,25.07
2023-04-26T08:52:28.825Z,25.18
2023-04-26T08:53:28.903Z,24.91
2023-04-26T08:54:28.851Z,25.28
2023-04-26T08:55:28.930Z,25.00
2023-04-26T08:56:28.899Z,25.09
2023-04-26T08:57:29.039Z,25.00
2023-04-26T08:58:29.257Z,25.00
2023-04-26T08:59:29.128Z,25.15
2023-04-26T09:00:29.143Z,25.00
2023-04-26T09:01:29.214Z,25.10
2023-04-26T09:02:29.385Z,25.21
2023-04-26T09:03:29.371Z,25.09
2023-04-26T09:04:29.428Z,25.00
2023-04-26T09:05:29.542Z,24.03
2023-04-26T09:06:29.315Z,22.91
2023-04-26T09:07:29.210Z,22.42
2023-04-26T09:08:29.425Z,23.49
2023-04-26T09:09:29.710Z,26.49
2023-04-26T09:10:29.198Z,26.82
2023-04-26T09:11:29.199Z,27.60
2023-04-26T09:12:29.132Z,27.30
2023-04-26T09:13:29.148Z,29.04
2023-04-26T09:14:29.132Z,30.28
2023-04-26T09:15:29.530Z,31.65
2023-04-26T09:16:29.208Z,31.67
2023-04-26T09:17:29.209Z,33.13
2023-04-26T09:18:29.348Z,32.89
2023-04-26T09:19:29.225Z,33.55
2023-04-26T09:20:29.280Z,34.28
2023-04-26T09:21:29.436Z,35.30
2023-04-26T09:22:29.319Z,36.33
2023-04-26T09:23:29.325Z,37.00
2023-04-26T09:24:29.338Z,36.10
2023-04-26T09:25:29.324Z,36.81
2023-04-26T09:26:29.315Z,36.08
2023-04-26T09:27:29.299Z,36.34
2023-04-26T09:28:29.337Z,37.09
2023-04-26T09:29:29.266Z,37.02
2023-04-26T09:30:29.280Z,37.57
2023-04-26T09:31:29.289Z,36.41
2023-04-26T09:32:29.272Z,36.50
2023-04-26T09:33:29.284Z,36.82
2023-04-26T09:34:29.277Z,37.56
2023-04-26T09:35:29.182Z,38.66
2023-04-26T09:36:29.543Z,40.95
2023-04-26T09:37:29.230Z,42.06
2023-04-26T09:38:29.152Z,42.48
2023-04-26T09:39:29.138Z,43.02
2023-04-26T09:40:29.162Z,43.20
2023-04-26T09:41:29.127Z,44.18
2023-04-26T09:42:29.293Z,44.05
2023-04-26T09:43:29.111Z,44.46
2023-04-26T09:44:29.068Z,42.99
2023-04-26T09:45:29.274Z,44.69
2023-04-26T09:46:29.074Z,46.24
2023-04-26T09:47:29.183Z,51.10
2023-04-26T09:48:29.303Z,62.76
2023-04-26T09:49:29.213Z,65.16
2023-04-26T09:50:29.249Z,65.77
2023-04-26T09:51:29.311Z,51.38
2023-04-26T09:52:29.325Z,40.24
2023-04-26T09:53:29.339Z,37.34
2023-04-26T09:54:29.347Z,37.27
2023-04-26T09:55:34.962Z,34.70
2023-04-26T09:56:30.407Z,34.61
2023-04-26T09:57:29.254Z,32.51
2023-04-26T09:58:29.246Z,29.98
2023-04-26T09:59:29.276Z,29.96
2023-04-26T10:00:29.267Z,28.90
2023-04-26T10:01:29.375Z,28.14
2023-04-26T10:02:29.313Z,30.72
2023-04-26T10:03:29.479Z,31.48
2023-04-26T10:04:29.183Z,29.80
2023-04-26T10:05:30.019Z,29.42
2023-04-26T10:06:29.123Z,30.68
2023-04-26T10:07:29.103Z,30.77
2023-04-26T10:08:29.104Z,30.82
2023-04-26T10:09:29.088Z,31.66
2023-04-26T10:10:29.056Z,31.46
2023-04-26T10:11:29.071Z,32.13
2023-04-26T10:12:29.033Z,33.16
2023-04-26T10:13:29.042Z,33.15
2023-04-26T10:14:28.982Z,33.21
2023-04-26T10:15:28.970Z,33.55
2023-04-26T10:16:28.965Z,33.26
2023-04-26T10:17:28.965Z,30.64
2023-04-26T10:18:28.900Z,24.78
2023-04-26T10:19:28.915Z,25.03
2023-04-26T10:20:28.852Z,24.58
2023-04-26T10:21:28.887Z,25.00
2023-04-26T10:22:28.873Z,25.00
2023-04-26T10:23:28.823Z,25.51
2023-04-26T10:24:28.783Z,24.85
2023-04-26T10:25:28.803Z,25.13
2023-04-26T10:26:28.822Z,25.10
2023-04-26T10:27:28.819Z,25.15
2023-04-26T10:28:28.767Z,25.00
2023-04-26T10:29:28.696Z,26.44
2023-04-26T10:30:28.762Z,26.62
2023-04-26T10:31:28.723Z,25.00
2023-04-26T10:32:28.637Z,25.18
2023-04-26T10:33:28.622Z,25.33
2023-04-26T10:34:28.603Z,25.86
2023-04-26T10:35:28.607Z,26.05
2023-04-26T10:36:28.676Z,22.41
2023-04-26T10:37:28.560Z,29.83
2023-04-26T10:38:28.556Z,30.83
2023-04-26T10:39:28.533Z,33.88
2023-04-26T10:40:28.515Z,37.77
2023-04-26T10:41:29.139Z,41.83
2023-04-26T10:42:28.485Z,45.42
2023-04-26T10:43:28.479Z,50.44
2023-04-26T10:44:28.540Z,55.98
2023-04-26T10:45:28.584Z,59.97
2023-04-26T10:46:28.615Z,63.50
2023-04-26T10:47:28.717Z,66.87
2023-04-26T10:48:28.694Z,68.34
2023-04-26T10:49:28.736Z,69.25
2023-04-26T10:50:28.785Z,72.13
2023-04-26T10:51:28.896Z,72.72
2023-04-26T10:52:28.853Z,73.79
2023-04-26T10:53:28.893Z,75.39
2023-04-26T10:54:28.940Z,76.70
2023-04-26T10:55:29.000Z,78.43
2023-04-26T10:56:29.046Z,79.14
2023-04-26T10:57:29.985Z,80.91
2023-04-26T10:58:29.175Z,80.48
2023-04-26T10:59:43.428Z,81.01
2023-04-26T11:00:32.063Z,81.05
2023-04-26T11:01:29.269Z,81.21
2023-04-26T11:02:29.255Z,81.37
2023-04-26T11:03:29.258Z,82.99
2023-04-26T11:04:29.193Z,86.30
2023-04-26T11:05:29.081Z,91.67
2023-04-26T11:06:29.070Z,99.64
2023-04-26T11:07:29.053Z,101.11
2023-04-26T11:08:29.013Z,102.47
2023-04-26T11:09:29.021Z,104.45
2023-04-26T11:10:28.998Z,104.57
2023-04-26T11:11:28.994Z,105.09
2023-04-26T11:12:29.001Z,106.20
2023-04-26T11:13:28.970Z,108.59
2023-04-26T11:14:28.905Z,111.37
2023-04-26T11:15:28.896Z,112.51
2023-04-26T11:16:28.969Z,113.22
2023-04-26T11:17:29.602Z,112.54
2023-04-26T11:18:28.929Z,110.67
2023-04-26T11:19:28.916Z,113.31
2023-04-26T11:20:28.951Z,113.15
2023-04-26T11:21:29.003Z,113.06
2023-04-26T11:22:28.975Z,114.79
2023-04-26T11:23:29.051Z,114.20
2023-04-26T11:24:29.063Z,115.26
2023-04-26T11:25:29.099Z,115.10
2023-04-26T11:26:29.146Z,115.49
2023-04-26T11:27:29.166Z,114.98
2023-04-26T11:28:29.227Z,115.94
2023-04-26T11:29:29.249Z,114.83
2023-04-26T11:30:29.195Z,114.68
2023-04-26T11:31:29.289Z,115.83
2023-04-26T11:32:29.279Z,114.45
2023-04-26T11:33:29.268Z,114.76
2023-04-26T11:34:29.311Z,114.76
2023-04-26T11:35:29.315Z,115.56
2023-04-26T11:36:29.448Z,114.45
2023-04-26T11:37:29.409Z,113.87
2023-04-26T11:38:29.429Z,114.07
2023-04-26T11:39:29.429Z,113.32
2023-04-26T11:40:29.448Z,114.27
2023-04-26T11:41:29.488Z,114.30
2023-04-26T11:42:29.526Z,113.68
2023-04-26T11:43:29.588Z,114.45
2023-04-26T11:44:29.602Z,113.63
2023-04-26T11:45:29.646Z,112.77
2023-04-26T11:46:29.727Z,113.52
2023-04-26T11:47:29.676Z,113.54
2023-04-26T11:48:29.679Z,113.71
2023-04-26T11:49:29.650Z,113.67
2023-04-26T11:50:29.631Z,113.89
2023-04-26T11:51:30.662Z,113.22
2023-04-26T11:52:29.641Z,113.79
2023-04-26T11:53:29.586Z,113.92
2023-04-26T11:54:29.578Z,112.94
2023-04-26T11:55:29.557Z,112.75
2023-04-26T11:56:29.550Z,113.37
2023-04-26T11:57:29.559Z,112.93
2023-04-26T11:58:29.532Z,112.57
2023-04-26T11:59:29.511Z,110.41
2023-04-26T12:00:29.606Z,112.43
2023-04-26T12:01:29.515Z,110.94
2023-04-26T12:02:29.740Z,110.71
2023-04-26T12:03:29.773Z,111.18
2023-04-26T12:04:30.425Z,112.65
2023-04-26T12:05:29.727Z,111.16
2023-04-26T12:06:29.663Z,109.33
2023-04-26T12:07:29.700Z,111.01
2023-04-26T12:08:29.742Z,110.26
2023-04-26T12:09:29.862Z,110.39
2023-04-26T12:10:29.847Z,110.13
2023-04-26T12:11:29.819Z,110.67
2023-04-26T12:12:29.838Z,109.98
2023-04-26T12:13:29.869Z,109.27
2023-04-26T12:14:29.864Z,109.55
2023-04-26T12:15:29.893Z,110.63
2023-04-26T12:16:29.906Z,109.57
2023-04-26T12:17:30.754Z,109.34
2023-04-26T12:18:29.827Z,109.06
2023-04-26T12:19:29.863Z,108.81
2023-04-26T12:20:29.861Z,108.54
2023-04-26T12:21:31.025Z,107.94
2023-04-26T12:22:29.849Z,108.62
2023-04-26T12:23:29.896Z,108.19
2023-04-26T12:24:29.871Z,108.46
2023-04-26T12:25:29.940Z,107.90
2023-04-26T12:26:30.050Z,109.08
2023-04-26T12:27:29.954Z,108.78
2023-04-26T12:28:29.942Z,108.32
2023-04-26T12:29:29.980Z,109.94
2023-04-26T12:30:29.950Z,108.48
2023-04-26T12:31:30.001Z,108.68
2023-04-26T12:32:30.016Z,108.02
2023-04-26T12:33:30.233Z,108.58
2023-04-26T12:34:30.091Z,109.43
2023-04-26T12:35:30.090Z,108.46
2023-04-26T12:36:30.121Z,107.89
2023-04-26T12:37:30.131Z,107.95
2023-04-26T12:38:30.159Z,107.41
2023-04-26T12:39:30.220Z,107.93
2023-04-26T12:40:30.255Z,107.87
2023-04-26T12:41:30.313Z,107.61
2023-04-26T12:42:30.338Z,107.73
2023-04-26T12:43:30.575Z,107.87
2023-04-26T12:44:30.453Z,107.62